createdAt,value
2022-08-14T00:00:07.252Z,28.66
2022-08-14T00:02:11.661Z,28.66
2022-08-14T00:04:35.795Z,28.68
2022-08-14T00:06:37.474Z,28.61
2022-08-14T00:08:44.930Z,28.59
2022-08-14T00:10:52.071Z,28.59
2022-08-14T00:12:56.754Z,28.58
2022-08-14T00:14:59.243Z,28.59
2022-08-14T00:17:01.989Z,28.56
2022-08-14T00:19:18.813Z,28.50
2022-08-14T00:21:30.961Z,28.57
2022-08-14T00:23:35.068Z,28.57
2022-08-14T00:25:42.103Z,28.56
2022-08-14T00:27:44.690Z,28.54
2022-08-14T00:29:50.794Z,28.58
2022-08-14T00:31:56.388Z,28.61
2022-08-14T00:33:58.780Z,28.59
2022-08-14T00:36:37.265Z,28.58
2022-08-14T00:38:44.792Z,28.55
2022-08-14T00:40:48.086Z,28.53
2022-08-14T00:42:55.767Z,28.45
2022-08-14T00:44:58.216Z,28.39
2022-08-14T00:47:00.447Z,28.42
2022-08-14T00:49:02.586Z,28.46
2022-08-14T00:51:04.773Z,28.45
2022-08-14T00:53:10.510Z,28.50
2022-08-14T00:55:16.104Z,28.56
2022-08-14T00:57:18.985Z,28.59
2022-08-14T00:59:20.586Z,28.59
2022-08-14T01:01:22.490Z,28.53
2022-08-14T01:03:25.930Z,28.45
2022-08-14T01:05:41.624Z,28.42
2022-08-14T01:07:56.854Z,28.42
2022-08-14T01:10:02.580Z,28.44
2022-08-14T01:12:05.945Z,28.42
2022-08-14T01:14:25.711Z,28.28
2022-08-14T01:16:30.795Z,28.25
2022-08-14T01:18:33.184Z,28.32
2022-08-14T01:20:39.879Z,28.33
2022-08-14T01:22:43.504Z,28.35
2022-08-14T01:24:45.280Z,28.34
2022-08-14T01:26:50.816Z,28.37
2022-08-14T01:28:56.955Z,28.39
2022-08-14T01:30:59.936Z,28.36
2022-08-14T01:33:01.598Z,28.33
2022-08-14T01:35:19.829Z,28.33
2022-08-14T01:37:27.942Z,28.29
2022-08-14T01:39:32.357Z,28.28
2022-08-14T01:41:35.324Z,28.18
2022-08-14T01:43:56.656Z,28.27
2022-08-14T01:46:06.734Z,28.16
2022-08-14T01:48:13.771Z,28.26
2022-08-14T01:50:15.785Z,28.30
2022-08-14T01:52:34.462Z,28.26
2022-08-14T01:54:40.306Z,28.21
2022-08-14T01:56:42.089Z,28.11
2022-08-14T01:58:58.058Z,28.10
2022-08-14T02:00:59.948Z,28.07
2022-08-14T02:03:02.003Z,27.89
2022-08-14T02:05:03.976Z,27.78
2022-08-14T02:07:07.134Z,27.82
2022-08-14T02:09:19.323Z,27.74
2022-08-14T02:11:26.251Z,27.72
2022-08-14T02:13:27.792Z,27.67
2022-08-14T02:15:32.328Z,27.58
2022-08-14T02:17:34.104Z,27.62
2022-08-14T02:19:35.697Z,27.62
2022-08-14T02:21:43.362Z,27.62
2022-08-14T02:23:46.685Z,27.65
2022-08-14T02:25:54.716Z,27.64
2022-08-14T02:28:22.670Z,27.64
2022-08-14T02:30:23.864Z,27.58
2022-08-14T02:32:30.240Z,27.59
2022-08-14T02:34:46.218Z,27.60
2022-08-14T02:37:05.467Z,27.60
2022-08-14T02:39:10.498Z,27.55
2022-08-14T02:41:13.237Z,27.56
2022-08-14T02:43:16.475Z,27.51
2022-08-14T02:45:24.616Z,27.39
2022-08-14T02:47:29.042Z,27.40
2022-08-14T02:49:33.914Z,27.39
2022-08-14T02:51:37.089Z,27.41
2022-08-14T02:53:42.528Z,27.34
2022-08-14T02:55:44.157Z,27.37
2022-08-14T02:57:46.349Z,27.33
2022-08-14T03:00:01.002Z,27.31
2022-08-14T03:02:04.620Z,27.26
2022-08-14T03:04:07.058Z,27.29
2022-08-14T03:06:20.466Z,27.30
2022-08-14T03:08:38.767Z,27.28
2022-08-14T03:10:48.548Z,27.25
2022-08-14T03:12:51.022Z,27.28
2022-08-14T03:14:53.293Z,27.22
2022-08-14T03:16:56.242Z,27.24
2022-08-14T03:18:59.917Z,27.18
2022-08-14T03:21:04.101Z,27.15
2022-08-14T03:23:05.861Z,27.10
2022-08-14T03:25:10.015Z,27.03
2022-08-14T03:27:12.841Z,27.03
2022-08-14T03:29:17.623Z,27.02
2022-08-14T03:31:20.319Z,27.01
2022-08-14T03:33:24.094Z,27.00
2022-08-14T03:35:30.813Z,26.89
2022-08-14T03:39:10.929Z,26.81
2022-08-14T03:40:00.860Z,26.82
2022-08-14T03:42:02.487Z,26.83
2022-08-14T03:45:26.801Z,26.84
2022-08-14T03:46:51.925Z,26.84
2022-08-14T03:48:54.104Z,26.74
2022-08-14T03:50:56.216Z,26.68
2022-08-14T03:53:00.488Z,26.60
2022-08-14T03:55:03.493Z,26.53
2022-08-14T03:57:05.658Z,26.56
2022-08-14T03:59:07.254Z,26.51
2022-08-14T04:01:20.636Z,26.46
2022-08-14T04:03:24.173Z,26.40
2022-08-14T04:05:27.349Z,26.32
2022-08-14T04:07:32.755Z,26.27
2022-08-14T04:09:37.552Z,26.26
2022-08-14T04:11:39.126Z,26.27
2022-08-14T04:13:43.680Z,26.24
2022-08-14T04:15:56.144Z,26.17
2022-08-14T04:18:04.642Z,26.18
2022-08-14T04:20:07.290Z,26.10
2022-08-14T04:22:13.550Z,26.03
2022-08-14T04:24:19.978Z,26.06
2022-08-14T04:26:27.006Z,26.05
2022-08-14T04:29:05.418Z,26.10
2022-08-14T04:31:05.801Z,26.11
2022-08-14T04:33:18.454Z,26.09
2022-08-14T04:35:23.708Z,26.07
2022-08-14T04:37:26.998Z,26.05
2022-08-14T04:39:30.743Z,25.99
2022-08-14T04:41:33.430Z,25.94
2022-08-14T04:43:38.437Z,25.90
2022-08-14T04:45:40.558Z,25.87
2022-08-14T04:47:46.342Z,25.86
2022-08-14T04:49:56.895Z,25.81
2022-08-14T04:52:00.054Z,25.68
2022-08-14T04:54:06.135Z,25.65
2022-08-14T04:56:30.137Z,25.63
2022-08-14T04:58:34.115Z,25.60
2022-08-14T05:00:36.123Z,25.61
2022-08-14T05:02:37.813Z,25.58
2022-08-14T05:04:39.970Z,25.62
2022-08-14T05:06:49.089Z,25.61
2022-08-14T05:08:57.028Z,25.54
2022-08-14T05:11:04.899Z,25.46
2022-08-14T05:13:14.480Z,25.48
2022-08-14T05:15:17.800Z,25.53
2022-08-14T05:17:20.077Z,25.54
2022-08-14T05:19:27.240Z,25.56
2022-08-14T05:21:58.224Z,25.55
2022-08-14T05:23:53.824Z,25.49
2022-08-14T05:25:59.319Z,25.47
2022-08-14T05:28:12.474Z,25.53
2022-08-14T05:30:18.067Z,25.56
2022-08-14T05:32:19.698Z,25.59
2022-08-14T05:34:21.749Z,25.64
2022-08-14T05:36:30.398Z,25.66
2022-08-14T05:38:37.133Z,25.66
2022-08-14T05:40:39.992Z,25.69
2022-08-14T05:42:42.327Z,25.69
2022-08-14T05:44:49.788Z,25.71
2022-08-14T05:46:55.743Z,25.73
2022-08-14T05:48:59.098Z,25.69
2022-08-14T05:51:00.707Z,25.61
2022-08-14T05:53:03.344Z,25.67
2022-08-14T05:55:06.658Z,25.70
2022-08-14T05:57:08.240Z,25.70
2022-08-14T05:59:11.620Z,25.70
2022-08-14T06:01:14.607Z,25.79
2022-08-14T06:03:19.134Z,25.82
2022-08-14T06:05:23.243Z,25.87
2022-08-14T06:07:25.071Z,25.95
2022-08-14T06:09:26.671Z,26.04
2022-08-14T06:11:30.935Z,26.05
2022-08-14T06:13:44.490Z,26.11
2022-08-14T06:15:47.809Z,26.12
2022-08-14T06:17:58.482Z,26.17
2022-08-14T06:20:01.359Z,26.23
2022-08-14T06:22:03.480Z,26.31
2022-08-14T06:24:05.483Z,26.42
2022-08-14T06:26:12.234Z,26.54
2022-08-14T06:28:27.495Z,26.63
2022-08-14T06:30:45.803Z,26.70
2022-08-14T06:32:52.575Z,26.83
2022-08-14T06:35:09.671Z,26.94
2022-08-14T06:37:16.704Z,27.10
2022-08-14T06:39:18.601Z,27.21
2022-08-14T06:41:58.355Z,27.28
2022-08-14T06:44:00.233Z,27.40
2022-08-14T06:46:03.786Z,27.52
2022-08-14T06:48:13.027Z,27.60
2022-08-14T06:50:18.915Z,27.66
2022-08-14T06:52:23.541Z,27.75
2022-08-14T06:54:31.244Z,27.84
2022-08-14T06:56:33.532Z,27.91
2022-08-14T06:58:36.820Z,28.01
2022-08-14T07:00:38.824Z,28.09
2022-08-14T07:02:43.603Z,28.22
2022-08-14T07:04:45.476Z,28.28
2022-08-14T07:06:48.483Z,28.31
2022-08-14T07:08:50.140Z,28.43
2022-08-14T07:10:54.516Z,28.58
2022-08-14T07:13:04.236Z,28.67
2022-08-14T07:15:07.450Z,28.74
2022-08-14T07:17:09.025Z,28.83
2022-08-14T07:19:11.244Z,28.89
2022-08-14T07:21:12.840Z,28.97
2022-08-14T07:23:19.942Z,29.06
2022-08-14T07:25:22.923Z,29.15
2022-08-14T07:27:36.138Z,29.27
2022-08-14T07:29:51.671Z,29.38
2022-08-14T07:31:53.819Z,29.49
2022-08-14T07:33:55.432Z,29.54
2022-08-14T07:36:00.435Z,29.58
2022-08-14T07:38:02.058Z,29.66
2022-08-14T07:40:06.449Z,29.75
2022-08-14T07:42:08.232Z,29.71
2022-08-14T07:44:29.489Z,29.72
2022-08-14T07:46:31.880Z,29.71
2022-08-14T07:48:38.197Z,29.70
2022-08-14T07:50:40.511Z,29.63
2022-08-14T07:52:48.774Z,29.74
2022-08-14T07:54:50.615Z,29.82
2022-08-14T07:56:56.554Z,29.89
2022-08-14T07:58:58.699Z,29.89
2022-08-14T08:01:01.436Z,29.88
2022-08-14T08:03:04.709Z,29.90
2022-08-14T08:05:07.871Z,29.94
2022-08-14T08:07:10.196Z,29.98
2022-08-14T08:09:12.531Z,29.99
2022-08-14T08:11:16.501Z,30.01
2022-08-14T08:13:22.337Z,30.64
2022-08-14T08:15:27.492Z,30.62
2022-08-14T08:17:34.963Z,30.61
2022-08-14T08:19:39.954Z,30.61
2022-08-14T08:21:43.526Z,30.49
2022-08-14T08:23:50.932Z,30.39
2022-08-14T08:25:53.198Z,30.37
2022-08-14T08:28:08.195Z,30.38
2022-08-14T08:30:13.305Z,30.29
2022-08-14T08:32:14.906Z,30.34
2022-08-14T08:34:18.252Z,30.38
2022-08-14T08:36:20.061Z,30.35
2022-08-14T08:39:17.616Z,30.40
2022-08-14T08:40:47.792Z,30.43
2022-08-14T08:42:52.044Z,30.47
2022-08-14T08:44:54.914Z,30.47
2022-08-14T08:46:58.549Z,30.48
2022-08-14T08:51:03.099Z,30.55
2022-08-14T08:53:08.766Z,30.61
2022-08-14T08:55:10.932Z,30.62
2022-08-14T08:57:15.703Z,30.68
2022-08-14T08:59:30.942Z,30.71
2022-08-14T09:01:33.336Z,30.76
2022-08-14T09:03:43.969Z,30.66
2022-08-14T09:05:53.961Z,30.62
2022-08-14T09:08:09.368Z,30.66
2022-08-14T09:10:30.911Z,30.71
2022-08-14T09:12:33.194Z,30.75
2022-08-14T09:14:34.958Z,30.80
2022-08-14T09:16:41.554Z,30.86
2022-08-14T09:18:49.946Z,30.91
2022-08-14T09:20:58.630Z,30.88
2022-08-14T09:23:00.776Z,30.80
2022-08-14T09:25:03.364Z,30.85
2022-08-14T09:27:08.671Z,30.87
2022-08-14T09:29:23.836Z,30.92
2022-08-14T09:31:26.783Z,30.89
2022-08-14T09:33:58.201Z,30.78
2022-08-14T09:36:33.300Z,30.87
2022-08-14T09:38:45.940Z,30.90
2022-08-14T09:40:59.140Z,30.91
2022-08-14T09:43:11.315Z,30.97
2022-08-14T09:45:15.405Z,31.04
2022-08-14T09:47:18.579Z,31.08
2022-08-14T09:49:31.832Z,31.14
2022-08-14T09:51:44.909Z,31.19
2022-08-14T09:54:19.461Z,31.17
2022-08-14T09:56:24.315Z,31.22
2022-08-14T09:58:37.874Z,31.28
2022-08-14T10:00:45.150Z,31.26
2022-08-14T10:02:54.617Z,31.27
2022-08-14T10:05:05.945Z,31.31
2022-08-14T10:07:10.394Z,31.36
2022-08-14T10:09:16.558Z,31.38
2022-08-14T10:11:23.576Z,31.37
2022-08-14T10:13:26.103Z,31.41
2022-08-14T10:15:30.964Z,31.44
2022-08-14T10:17:33.125Z,31.45
2022-08-14T10:19:48.454Z,31.50
2022-08-14T10:23:12.019Z,31.52
2022-08-14T10:24:37.035Z,31.50
2022-08-14T10:26:39.217Z,31.46
2022-08-14T10:29:18.699Z,31.38
2022-08-14T10:31:16.550Z,31.45
2022-08-14T10:33:27.697Z,31.52
2022-08-14T10:35:39.943Z,31.57
2022-08-14T10:37:45.627Z,31.60
2022-08-14T10:40:05.522Z,31.68
2022-08-14T10:42:16.473Z,31.78
2022-08-14T10:44:23.419Z,31.77
2022-08-14T10:47:37.182Z,31.81
2022-08-14T10:48:56.730Z,31.92
2022-08-14T10:50:58.284Z,31.97
2022-08-14T10:53:03.201Z,32.05
2022-08-14T10:55:07.375Z,31.98
2022-08-14T10:57:14.357Z,32.02
2022-08-14T10:59:18.858Z,32.02
2022-08-14T11:01:30.696Z,32.11
2022-08-14T11:03:56.766Z,32.19
2022-08-14T11:05:58.906Z,32.22
2022-08-14T11:08:02.004Z,32.21
2022-08-14T11:10:14.516Z,31.61
2022-08-14T11:12:34.295Z,31.51
2022-08-14T11:14:41.037Z,31.62
2022-08-14T11:16:53.437Z,31.68
2022-08-14T11:18:59.641Z,31.79
2022-08-14T11:21:01.942Z,31.94
2022-08-14T11:23:08.706Z,32.08
2022-08-14T11:25:12.611Z,32.25
2022-08-14T11:27:23.668Z,32.40
2022-08-14T11:29:36.353Z,32.49
2022-08-14T11:31:39.361Z,32.61
2022-08-14T11:33:43.459Z,32.76
2022-08-14T11:35:48.558Z,32.90
2022-08-14T11:37:52.120Z,33.02
2022-08-14T11:39:59.466Z,33.27
2022-08-14T11:42:01.210Z,33.42
2022-08-14T11:44:45.419Z,33.35
2022-08-14T11:46:44.496Z,33.56
2022-08-14T11:49:01.591Z,33.46
2022-08-14T11:51:13.071Z,33.52
2022-08-14T11:53:20.604Z,33.49
2022-08-14T11:55:27.118Z,33.50
2022-08-14T11:57:28.771Z,33.52
2022-08-14T11:59:33.581Z,33.51
2022-08-14T12:01:41.216Z,33.62
2022-08-14T12:03:52.424Z,33.64
2022-08-14T12:06:05.642Z,33.72
2022-08-14T12:08:12.151Z,33.86
2022-08-14T12:10:26.728Z,33.90
2022-08-14T12:12:42.222Z,33.97
2022-08-14T12:14:50.031Z,34.04
2022-08-14T12:16:59.687Z,34.10
2022-08-14T12:19:03.789Z,34.22
2022-08-14T12:21:15.749Z,34.34
2022-08-14T12:23:22.823Z,34.44
2022-08-14T12:25:25.217Z,34.46
2022-08-14T12:27:41.364Z,34.70
2022-08-14T12:29:54.161Z,34.97
2022-08-14T12:32:00.739Z,35.09
2022-08-14T12:34:04.342Z,35.31
2022-08-14T12:36:20.695Z,35.58
2022-08-14T12:38:33.071Z,36.12
2022-08-14T12:40:46.119Z,36.49
2022-08-14T12:42:53.772Z,37.28
2022-08-14T12:44:57.136Z,37.84
2022-08-14T12:47:07.285Z,38.60
2022-08-14T12:49:11.004Z,38.96
2022-08-14T12:51:16.832Z,39.45
2022-08-14T12:53:19.524Z,39.78
2022-08-14T12:55:21.682Z,40.11
2022-08-14T12:57:32.950Z,40.30
2022-08-14T12:59:43.127Z,40.39
2022-08-14T13:01:59.324Z,40.45
2022-08-14T13:04:07.391Z,40.22
2022-08-14T13:06:09.219Z,40.29
2022-08-14T13:08:33.630Z,40.48
2022-08-14T13:10:47.316Z,40.76
2022-08-14T13:13:13.291Z,40.71
2022-08-14T13:15:16.953Z,40.70
2022-08-14T13:17:23.594Z,40.45
2022-08-14T13:19:28.229Z,40.43
2022-08-14T13:21:30.697Z,40.80
2022-08-14T13:23:53.345Z,40.97
2022-08-14T13:25:56.742Z,41.60
2022-08-14T13:27:58.831Z,41.67
2022-08-14T13:30:01.695Z,41.83
2022-08-14T13:32:06.269Z,42.12
2022-08-14T13:34:12.518Z,42.60
2022-08-14T13:36:24.012Z,42.50
2022-08-14T13:38:27.996Z,42.44
2022-08-14T13:40:29.773Z,42.10
2022-08-14T13:42:31.928Z,42.18
2022-08-14T13:44:36.281Z,42.44
2022-08-14T13:46:44.559Z,42.10
2022-08-14T13:48:48.221Z,41.90
2022-08-14T13:50:55.279Z,41.68
2022-08-14T13:52:59.719Z,41.66
2022-08-14T13:55:04.955Z,41.89
2022-08-14T13:57:11.469Z,42.08
2022-08-14T13:59:20.090Z,42.03
2022-08-14T14:01:25.824Z,41.89
2022-08-14T14:03:30.160Z,42.14
2022-08-14T14:05:52.725Z,41.99
2022-08-14T14:07:59.941Z,41.89
2022-08-14T14:10:05.410Z,41.74
2022-08-14T14:12:37.899Z,41.73
2022-08-14T14:14:50.943Z,41.78
2022-08-14T14:16:53.508Z,41.56
2022-08-14T14:18:57.601Z,41.08
2022-08-14T14:20:59.332Z,40.41
2022-08-14T14:23:09.645Z,39.77
2022-08-14T14:25:19.425Z,39.44
2022-08-14T14:27:41.071Z,39.28
2022-08-14T14:29:47.523Z,38.99
2022-08-14T14:31:52.781Z,38.61
2022-08-14T14:33:59.799Z,38.28
2022-08-14T14:36:03.254Z,38.22
2022-08-14T14:38:13.178Z,38.00
2022-08-14T14:40:52.183Z,37.89
2022-08-14T14:42:47.999Z,37.77
2022-08-14T14:45:01.178Z,37.55
2022-08-14T14:47:03.254Z,37.50
2022-08-14T14:49:10.095Z,37.41
2022-08-14T14:51:16.893Z,37.41
2022-08-14T14:53:20.541Z,37.22
2022-08-14T14:55:22.384Z,37.03
2022-08-14T14:57:30.310Z,37.01
2022-08-14T14:59:38.042Z,36.99
2022-08-14T15:01:41.115Z,36.93
2022-08-14T15:03:43.346Z,36.77
2022-08-14T15:05:44.938Z,36.75
2022-08-14T15:07:49.988Z,36.67
2022-08-14T15:09:53.207Z,36.65
2022-08-14T15:11:54.906Z,36.66
2022-08-14T15:13:56.956Z,36.59
2022-08-14T15:15:59.777Z,36.61
2022-08-14T15:18:02.328Z,36.64
2022-08-14T15:20:10.699Z,36.57
2022-08-14T15:22:19.416Z,36.53
2022-08-14T15:24:26.398Z,36.40
2022-08-14T15:26:32.017Z,36.38
2022-08-14T15:28:38.652Z,36.31
2022-08-14T15:30:41.825Z,36.29
2022-08-14T15:32:43.515Z,36.30
2022-08-14T15:34:51.765Z,36.30
2022-08-14T15:36:54.579Z,36.24
2022-08-14T15:38:56.282Z,36.22
2022-08-14T15:40:59.262Z,36.20
2022-08-14T15:43:09.094Z,36.13
2022-08-14T15:45:12.975Z,36.12
2022-08-14T15:47:16.561Z,36.03
2022-08-14T15:49:34.891Z,35.98
2022-08-14T15:51:42.282Z,35.94
2022-08-14T15:53:46.630Z,35.82
2022-08-14T15:55:52.925Z,35.76
2022-08-14T15:58:02.050Z,35.72
2022-08-14T16:00:11.407Z,35.71
2022-08-14T16:02:27.431Z,35.68
2022-08-14T16:04:29.340Z,35.63
2022-08-14T16:06:31.098Z,35.58
2022-08-14T16:08:32.908Z,35.55
2022-08-14T16:10:41.525Z,35.55
2022-08-14T16:12:50.053Z,35.45
2022-08-14T16:14:51.706Z,35.43
2022-08-14T16:17:00.036Z,35.41
2022-08-14T16:19:04.063Z,35.38
2022-08-14T16:21:12.487Z,35.39
2022-08-14T16:23:15.622Z,35.42
2022-08-14T16:25:19.470Z,35.36
2022-08-14T16:27:39.343Z,35.29
2022-08-14T16:29:43.055Z,35.24
2022-08-14T16:31:47.093Z,35.31
2022-08-14T16:33:59.594Z,35.30
2022-08-14T16:36:04.932Z,35.29
2022-08-14T16:38:45.758Z,35.25
2022-08-14T16:40:48.608Z,35.24
2022-08-14T16:43:04.582Z,35.20
2022-08-14T16:45:12.547Z,35.19
2022-08-14T16:47:15.411Z,35.15
2022-08-14T16:49:18.493Z,35.14
2022-08-14T16:51:21.777Z,35.09
2022-08-14T16:53:23.650Z,35.09
2022-08-14T16:55:30.531Z,35.06
2022-08-14T16:57:32.710Z,35.00
2022-08-14T16:59:52.751Z,35.00
2022-08-14T17:01:57.862Z,34.94
2022-08-14T17:04:02.324Z,34.94
2022-08-14T17:06:30.869Z,34.93
2022-08-14T17:08:41.379Z,34.96
2022-08-14T17:11:04.750Z,34.94
2022-08-14T17:13:17.148Z,34.88
2022-08-14T17:15:18.882Z,34.82
2022-08-14T17:17:22.448Z,34.80
2022-08-14T17:19:25.814Z,34.81
2022-08-14T17:21:37.587Z,34.81
2022-08-14T17:23:39.858Z,34.83
2022-08-14T17:25:49.287Z,34.83
2022-08-14T17:28:49.756Z,34.85
2022-08-14T17:30:49.018Z,34.79
2022-08-14T17:32:57.530Z,34.76
2022-08-14T17:35:01.897Z,34.75
2022-08-14T17:37:05.609Z,34.75
2022-08-14T17:39:17.622Z,34.69
2022-08-14T17:41:21.583Z,34.57
2022-08-14T17:43:29.434Z,34.64
2022-08-14T17:45:44.369Z,34.55
2022-08-14T17:47:49.102Z,34.52
2022-08-14T17:49:53.031Z,34.52
2022-08-14T17:51:57.166Z,34.49
2022-08-14T17:54:08.549Z,34.51
2022-08-14T17:56:10.526Z,34.51
2022-08-14T17:58:20.527Z,34.47
2022-08-14T18:00:23.074Z,34.39
2022-08-14T18:02:31.467Z,34.30
2022-08-14T18:04:35.040Z,34.24
2022-08-14T18:06:38.626Z,34.14
2022-08-14T18:08:58.876Z,34.08
2022-08-14T18:11:03.391Z,34.04
2022-08-14T18:13:05.423Z,33.98
2022-08-14T18:15:14.494Z,33.92
2022-08-14T18:17:18.874Z,33.88
2022-08-14T18:19:30.031Z,33.83
2022-08-14T18:21:56.610Z,33.78
2022-08-14T18:23:53.336Z,33.72
2022-08-14T18:25:58.793Z,33.66
2022-08-14T18:28:16.001Z,33.66
2022-08-14T18:30:33.404Z,33.66
2022-08-14T18:32:47.474Z,33.67
2022-08-14T18:34:59.435Z,33.72
2022-08-14T18:37:16.983Z,33.72
2022-08-14T18:40:03.631Z,33.68
2022-08-14T18:42:32.171Z,33.68
2022-08-14T18:45:16.063Z,33.66
2022-08-14T18:47:23.293Z,33.63
2022-08-14T18:49:24.909Z,33.60
2022-08-14T18:51:45.675Z,33.53
2022-08-14T18:53:56.970Z,33.48
2022-08-14T18:56:00.089Z,33.45
2022-08-14T18:58:26.569Z,33.42
2022-08-14T19:00:53.067Z,33.40
2022-08-14T19:02:55.557Z,33.33
2022-08-14T19:05:02.647Z,33.30
2022-08-14T19:07:16.233Z,33.27
2022-08-14T19:10:06.816Z,33.26
2022-08-14T19:12:15.354Z,33.21
2022-08-14T19:14:44.134Z,33.18
2022-08-14T19:16:53.570Z,33.13
2022-08-14T19:19:00.232Z,33.08
2022-08-14T19:21:13.524Z,32.98
2022-08-14T19:23:17.367Z,32.89
2022-08-14T19:25:47.496Z,32.83
2022-08-14T19:28:27.374Z,32.71
2022-08-14T19:30:33.541Z,32.61
2022-08-14T19:32:38.300Z,32.54
2022-08-14T19:34:48.023Z,32.47
2022-08-14T19:37:05.527Z,32.44
2022-08-14T19:39:08.058Z,32.37
2022-08-14T19:41:13.689Z,32.26
2022-08-14T19:43:56.215Z,32.24
2022-08-14T19:45:45.965Z,32.18
2022-08-14T19:47:50.082Z,32.11
2022-08-14T19:50:24.450Z,32.09
2022-08-14T19:52:22.198Z,32.06
2022-08-14T19:54:29.640Z,31.99
2022-08-14T19:56:35.983Z,31.99
2022-08-14T19:58:54.468Z,31.95
2022-08-14T20:00:58.952Z,31.90
2022-08-14T20:03:10.915Z,31.81
2022-08-14T20:05:18.006Z,31.70
2022-08-14T20:07:27.403Z,31.65
2022-08-14T20:11:04.788Z,31.66
2022-08-14T20:12:29.184Z,31.55
2022-08-14T20:14:38.419Z,31.55
2022-08-14T20:16:42.697Z,31.53
2022-08-14T20:18:49.895Z,31.48
2022-08-14T20:20:54.980Z,31.45
2022-08-14T20:22:56.647Z,31.38
2022-08-14T20:25:13.770Z,31.32
2022-08-14T20:27:33.496Z,31.33
2022-08-14T20:29:37.948Z,31.36
2022-08-14T20:31:40.731Z,31.36
2022-08-14T20:34:24.387Z,31.40
2022-08-14T20:36:31.959Z,31.40
2022-08-14T20:38:34.255Z,31.44
2022-08-14T20:40:50.328Z,31.45
2022-08-14T20:42:54.085Z,31.45
2022-08-14T20:45:03.014Z,31.49
2022-08-14T20:47:05.803Z,31.49
2022-08-14T20:49:12.887Z,31.49
2022-08-14T20:51:23.983Z,31.51
2022-08-14T20:53:35.867Z,31.46
2022-08-14T20:55:41.413Z,31.45
2022-08-14T20:57:46.825Z,31.51
2022-08-14T20:59:56.768Z,31.55
2022-08-14T21:02:28.987Z,31.57
2022-08-14T21:04:36.265Z,31.55
2022-08-14T21:07:24.775Z,31.52
2022-08-14T21:09:11.660Z,31.54
2022-08-14T21:11:17.925Z,31.55
2022-08-14T21:14:09.074Z,31.54
2022-08-14T21:15:42.121Z,31.45
2022-08-14T21:17:45.170Z,31.44
2022-08-14T21:19:50.535Z,31.37
2022-08-14T21:21:56.672Z,31.32
2022-08-14T21:23:58.580Z,31.27
2022-08-14T21:26:00.610Z,31.19
2022-08-14T21:28:05.200Z,31.13
2022-08-14T21:30:11.451Z,31.01
2022-08-14T21:32:20.778Z,30.92
2022-08-14T21:34:27.400Z,30.92
2022-08-14T21:36:34.690Z,30.89
2022-08-14T21:38:43.278Z,30.93
2022-08-14T21:40:49.777Z,30.92
2022-08-14T21:42:51.491Z,30.89
2022-08-14T21:44:54.253Z,30.87
2022-08-14T21:46:56.695Z,30.83
2022-08-14T21:48:58.325Z,30.81
2022-08-14T21:51:53.724Z,30.75
2022-08-14T21:53:27.537Z,30.66
2022-08-14T21:55:32.917Z,30.65
2022-08-14T21:57:56.288Z,30.63
2022-08-14T22:00:02.003Z,30.57
2022-08-14T22:02:05.601Z,30.48
2022-08-14T22:04:33.157Z,30.42
2022-08-14T22:06:32.206Z,30.45
2022-08-14T22:08:33.844Z,30.42
2022-08-14T22:10:35.958Z,30.47
2022-08-14T22:12:45.287Z,30.51
2022-08-14T22:15:00.960Z,30.51
2022-08-14T22:17:12.670Z,30.53
2022-08-14T22:19:21.131Z,30.50
2022-08-14T22:21:22.860Z,30.51
2022-08-14T22:23:27.607Z,30.53
2022-08-14T22:25:33.874Z,30.50
2022-08-14T22:27:55.909Z,30.43
2022-08-14T22:29:58.740Z,30.40
2022-08-14T22:32:00.425Z,30.43
2022-08-14T22:34:09.899Z,30.46
2022-08-14T22:36:12.574Z,30.46
2022-08-14T22:38:35.406Z,30.45
2022-08-14T22:40:58.391Z,30.41
2022-08-14T22:43:08.319Z,30.37
2022-08-14T22:45:10.856Z,30.35
2022-08-14T22:47:17.074Z,30.35
2022-08-14T22:50:30.725Z,30.31
2022-08-14T22:51:50.234Z,30.26
2022-08-14T22:53:56.152Z,30.26
2022-08-14T22:55:59.829Z,30.21
2022-08-14T22:58:02.539Z,30.15
2022-08-14T23:00:06.895Z,30.12
2022-08-14T23:02:14.059Z,30.12
2022-08-14T23:04:35.033Z,30.06
2022-08-14T23:07:02.515Z,30.06
2022-08-14T23:09:34.845Z,30.01
2022-08-14T23:11:22.660Z,29.99
2022-08-14T23:13:24.628Z,29.94
2022-08-14T23:15:28.991Z,29.90
2022-08-14T23:17:39.492Z,29.86
2022-08-14T23:19:42.162Z,29.66
2022-08-14T23:21:46.181Z,29.60
2022-08-14T23:23:49.307Z,29.59
2022-08-14T23:26:46.895Z,29.55
2022-08-14T23:28:34.556Z,29.61
2022-08-14T23:30:48.956Z,29.59
2022-08-14T23:32:52.436Z,29.55
2022-08-14T23:34:54.977Z,29.46
2022-08-14T23:36:59.341Z,29.44
2022-08-14T23:39:12.360Z,29.38
2022-08-14T23:41:22.429Z,29.38
2022-08-14T23:43:24.515Z,29.34
2022-08-14T23:45:36.742Z,29.30
2022-08-14T23:47:52.009Z,29.29
2022-08-14T23:50:00.677Z,29.31
2022-08-14T23:52:50.480Z,29.36
2022-08-14T23:54:49.411Z,29.34
2022-08-14T23:56:48.938Z,29.35
2022-08-14T23:59:04.362Z,29.41
